Date,TemperatureHighF,TemperatureAvgF,TemperatureLowF,DewpointHighF,DewpointAvgF,DewpointLowF,HumidityHigh,HumidityAvg,HumidityLow,PressureMaxIn,PressureMinIn,WindSpeedMaxMPH,WindSpeedAvgMPH,GustSpeedMaxMPH,PrecipitationSumIn
2013-1-1,57,44,33,43,38,33,99,81,51,30.13,30.03,4,2,13,0.00
2013-1-2,69,46,37,42,38,35,95,77,37,30.10,29.97,4,1,13,0.58
2013-1-3,68,46,35,45,39,33,99,82,37,30.11,30.02,0,0,0,0.58
2013-1-4,69,48,39,51,43,39,99,86,39,30.14,30.03,0,0,0,0.00
2013-1-5,53,45,42,51,44,42,99,98,83,30.15,29.97,0,0,0,0.34
2013-1-6,57,47,36,54,46,36,99,96,71,30.03,29.89,0,0,0,0.64
2013-1-7,65,44,34,60,42,34,99,94,57,30.09,29.98,0,0,0,0.01
2013-1-8,68,54,41,54,48,41,99,81,60,30.05,29.93,1,0,6,0.07
2013-1-9,64,64,64,52,52,52,66,66,66,29.97,29.83,1,1,4,0.04
2013-1-10,64,53,36,52,42,33,94,68,48,30.03,29.89,5,2,14,1.20
2013-1-11,54,39,36,45,36,34,99,91,66,30.11,29.96,5,0,13,0.00
2013-1-12,55,41,32,45,36,30,99,83,40,30.09,29.97,9,1,11,0.00
2013-1-13,53,39,29,35,30,22,95,74,39,30.09,29.98,3,1,10,0.00
2013-1-14,53,38,28,30,26,22,90,67,32,30.24,30.04,4,1,11,0.00
2013-1-15,60,41,29,35,30,26,90,68,32,30.31,30.21,3,1,11,0.00
2013-1-16,64,47,36,42,35,30,82,66,38,30.25,30.06,4,2,11,0.00
2013-1-17,69,52,42,42,37,34,75,58,35,30.06,29.93,5,3,11,0.00
2013-1-18,72,54,43,45,40,35,75,61,36,30.03,29.92,5,2,11,0.00
2013-1-19,71,55,44,46,41,36,79,61,38,30.04,29.93,5,3,13,0.00
2013-1-20,72,54,43,42,38,33,73,56,25,30.03,29.91,4,3,14,0.00
2013-1-21,73,55,43,42,37,33,72,54,27,29.98,29.86,5,2,33,0.00
2013-1-22,73,54,44,42,37,26,80,55,19,29.93,29.81,4,1,12,0.00
2013-1-23,60,52,47,50,45,41,98,77,54,29.91,29.79,2,0,6,0.00
2013-1-24,58,54,50,58,54,50,99,99,95,30.00,29.87,2,1,8,0.08
2013-1-25,69,58,51,62,56,51,99,93,75,30.01,29.83,3,1,11,0.01
2013-1-26,61,53,43,59,49,39,99,87,60,29.93,29.81,6,1,14,0.00
2013-1-27,57,44,34,47,39,34,99,85,56,30.00,29.92,4,1,98,0.00
2013-1-28,41,34,32,39,34,32,99,98,90,30.03,29.92,0,0,4,0.00
2013-1-29,59,46,5,50,42,0,99,87,67,30.09,29.98,3,0,100,0.00
2013-1-30,54,54,54,47,47,47,76,76,76,29.99,29.99,0,0,2,0.00
2013-1-31,54,54,54,47,47,46,76,76,76,29.99,29.90,0,0,3,0.00